createdAt,value
2022-09-26T00:01:26.345Z,12.95
2022-09-26T00:03:56.667Z,12.86
2022-09-26T00:06:23.939Z,12.77
2022-09-26T00:08:51.320Z,12.75
2022-09-26T00:11:20.835Z,12.67
2022-09-26T00:13:51.620Z,12.81
2022-09-26T00:16:18.107Z,12.66
2022-09-26T00:18:48.358Z,12.73
2022-09-26T00:21:15.420Z,12.90
2022-09-26T00:23:42.029Z,12.69
2022-09-26T00:26:09.363Z,12.79
2022-09-26T00:28:35.715Z,12.96
2022-09-26T00:31:05.711Z,12.75
2022-09-26T00:33:32.667Z,12.74
2022-09-26T00:35:59.458Z,12.55
2022-09-26T00:38:26.009Z,12.72
2022-09-26T00:40:52.809Z,12.72
2022-09-26T00:43:28.667Z,12.71
2022-09-26T00:45:58.229Z,12.44
2022-09-26T00:48:26.444Z,12.68
2022-09-26T00:50:53.240Z,12.45
2022-09-26T00:53:23.475Z,12.52
2022-09-26T00:55:59.388Z,12.34
2022-09-26T00:58:30.765Z,12.29
2022-09-26T01:00:58.560Z,12.38
2022-09-26T01:03:28.976Z,12.25
2022-09-26T01:05:56.133Z,12.62
2022-09-26T01:08:28.103Z,12.10
2022-09-26T01:10:55.277Z,12.67
2022-09-26T01:13:21.804Z,12.87
2022-09-26T01:15:48.166Z,12.67
2022-09-26T01:18:14.638Z,12.34
2022-09-26T01:20:51.703Z,12.63
2022-09-26T01:23:40.304Z,12.52
2022-09-26T01:26:45.370Z,12.46
2022-09-26T01:29:31.173Z,12.16
2022-09-26T01:32:09.842Z,12.59
2022-09-26T01:34:42.295Z,12.35
2022-09-26T01:37:18.711Z,12.35
2022-09-26T01:39:54.849Z,12.15
2022-09-26T01:42:28.787Z,12.62
2022-09-26T01:45:01.885Z,12.45
2022-09-26T01:47:37.896Z,12.93
2022-09-26T01:50:12.864Z,12.68
2022-09-26T01:52:45.511Z,12.59
2022-09-26T01:55:16.344Z,12.38
2022-09-26T01:57:46.916Z,12.22
2022-09-26T02:00:13.860Z,12.61
2022-09-26T02:02:43.678Z,12.56
2022-09-26T02:05:16.776Z,12.49
2022-09-26T02:07:50.025Z,12.56
2022-09-26T02:10:20.293Z,12.63
2022-09-26T02:12:54.706Z,12.74
2022-09-26T02:15:24.236Z,12.47
2022-09-26T02:17:57.003Z,12.23
2022-09-26T02:20:28.771Z,12.28
2022-09-26T02:22:57.381Z,12.31
2022-09-26T02:25:23.876Z,12.36
2022-09-26T02:27:50.354Z,12.36
2022-09-26T02:30:16.884Z,12.17
2022-09-26T02:32:43.294Z,11.93
2022-09-26T02:35:11.264Z,12.24
2022-09-26T02:37:37.631Z,12.82
2022-09-26T02:40:05.035Z,12.34
2022-09-26T02:42:34.075Z,12.53
2022-09-26T02:45:19.164Z,12.45
2022-09-26T02:47:58.938Z,12.53
2022-09-26T02:50:42.667Z,12.63
2022-09-26T02:53:21.267Z,12.16
2022-09-26T02:55:56.889Z,12.36
2022-09-26T02:58:33.310Z,12.46
2022-09-26T03:01:07.709Z,12.67
2022-09-26T03:03:39.640Z,12.35
2022-09-26T03:06:12.087Z,12.54
2022-09-26T03:08:42.263Z,12.00
2022-09-26T03:11:10.696Z,12.46
2022-09-26T03:13:39.298Z,12.44
2022-09-26T03:16:07.409Z,12.17
2022-09-26T03:18:39.900Z,12.04
2022-09-26T03:21:08.164Z,12.37
2022-09-26T03:23:34.741Z,12.08
2022-09-26T03:26:04.323Z,12.24
2022-09-26T03:28:35.345Z,12.13
2022-09-26T03:31:04.034Z,12.59
2022-09-26T03:33:30.392Z,12.36
2022-09-26T03:35:56.847Z,12.34
2022-09-26T03:38:24.619Z,12.46
2022-09-26T03:40:51.273Z,12.09
2022-09-26T03:43:17.700Z,12.26
2022-09-26T03:45:44.070Z,12.54
2022-09-26T03:48:10.493Z,12.47
2022-09-26T03:50:36.829Z,12.63
2022-09-26T03:53:03.244Z,12.85
2022-09-26T03:55:30.935Z,12.83
2022-09-26T03:57:59.456Z,13.04
2022-09-26T04:00:25.886Z,12.49
2022-09-26T04:02:52.278Z,12.37
2022-09-26T04:05:18.633Z,12.81
2022-09-26T04:07:45.114Z,12.55
2022-09-26T04:10:11.902Z,12.69
2022-09-26T04:12:40.109Z,12.52
2022-09-26T04:15:07.863Z,12.56
2022-09-26T04:17:34.444Z,12.56
2022-09-26T04:20:01.565Z,12.49
2022-09-26T04:22:27.939Z,12.55
2022-09-26T04:24:54.335Z,12.68
2022-09-26T04:27:20.691Z,12.74
2022-09-26T04:29:48.360Z,13.11
2022-09-26T04:32:14.716Z,12.74
2022-09-26T04:34:41.120Z,12.74
2022-09-26T04:37:07.479Z,12.77
2022-09-26T04:39:33.836Z,12.85
2022-09-26T04:42:00.192Z,12.79
2022-09-26T04:44:26.543Z,12.58
2022-09-26T04:46:54.225Z,12.52
2022-09-26T04:49:20.577Z,12.42
2022-09-26T04:51:46.931Z,12.48
2022-09-26T04:54:13.526Z,12.42
2022-09-26T04:56:39.898Z,12.63
2022-09-26T04:59:06.478Z,12.52
2022-09-26T05:01:33.014Z,13.23
2022-09-26T05:04:01.024Z,12.74
2022-09-26T05:06:27.355Z,12.79
2022-09-26T05:08:53.959Z,12.49
2022-09-26T05:11:20.344Z,12.29
2022-09-26T05:13:51.242Z,12.67
2022-09-26T05:16:19.790Z,12.73
2022-09-26T05:18:49.624Z,12.51
2022-09-26T05:21:17.372Z,12.74
2022-09-26T05:23:45.261Z,12.66
2022-09-26T05:26:16.876Z,12.84
2022-09-26T05:28:43.273Z,12.78
2022-09-26T05:31:09.689Z,13.12
2022-09-26T05:33:36.046Z,12.62
2022-09-26T05:36:02.412Z,12.58
2022-09-26T05:38:30.091Z,12.80
2022-09-26T05:40:56.529Z,12.71
2022-09-26T05:43:23.537Z,13.18
2022-09-26T05:45:49.895Z,12.71
2022-09-26T05:48:16.515Z,12.97
2022-09-26T05:50:43.856Z,13.10
2022-09-26T05:53:10.348Z,13.11
2022-09-26T05:55:38.049Z,12.37
2022-09-26T05:58:04.632Z,12.67
2022-09-26T06:00:31.042Z,12.63
2022-09-26T06:02:58.904Z,13.39
2022-09-26T06:05:25.503Z,12.94
2022-09-26T06:07:52.552Z,13.17
2022-09-26T06:10:19.956Z,12.83
2022-09-26T06:12:51.073Z,13.23
2022-09-26T06:15:17.773Z,13.20
2022-09-26T06:17:44.149Z,13.53
2022-09-26T06:20:10.523Z,13.06
2022-09-26T06:22:40.446Z,13.39
2022-09-26T06:25:07.975Z,13.40
2022-09-26T06:27:34.421Z,12.97
2022-09-26T06:30:02.112Z,13.07
2022-09-26T06:32:28.521Z,13.09
2022-09-26T06:34:55.128Z,12.95
2022-09-26T06:37:21.479Z,13.62
2022-09-26T06:39:47.815Z,13.54
2022-09-26T06:42:14.186Z,13.06
2022-09-26T06:44:40.527Z,13.18
2022-09-26T06:47:08.278Z,13.31
2022-09-26T06:49:34.645Z,13.59
2022-09-26T06:52:01.538Z,13.60
2022-09-26T06:54:27.899Z,13.77
2022-09-26T06:56:54.275Z,13.20
2022-09-26T06:59:20.614Z,13.41
2022-09-26T07:01:47.043Z,13.48
2022-09-26T07:04:15.112Z,13.66
2022-09-26T07:06:41.614Z,13.55
2022-09-26T07:09:12.021Z,13.75
2022-09-26T07:12:09.391Z,14.14
2022-09-26T07:14:25.416Z,13.38
2022-09-26T07:16:52.024Z,13.40
2022-09-26T07:19:19.721Z,13.94
2022-09-26T07:21:47.189Z,14.20
2022-09-26T07:24:13.545Z,14.25
2022-09-26T07:26:40.004Z,14.24
2022-09-26T07:29:06.510Z,13.60
2022-09-26T07:31:33.159Z,14.33
2022-09-26T07:33:59.522Z,14.96
2022-09-26T07:36:27.166Z,15.09
2022-09-26T07:38:53.609Z,14.41
2022-09-26T07:41:20.019Z,13.97
2022-09-26T07:46:32.875Z,13.52
2022-09-26T07:48:59.282Z,13.95
2022-09-26T07:51:26.996Z,14.19
2022-09-26T07:53:53.352Z,14.41
2022-09-26T07:56:19.731Z,14.75
2022-09-26T07:58:46.055Z,14.72
2022-09-26T08:01:14.545Z,14.82
2022-09-26T08:03:41.789Z,14.59
2022-09-26T08:06:09.265Z,14.95
2022-09-26T08:08:36.949Z,15.06
2022-09-26T08:11:04.626Z,14.87
2022-09-26T08:13:32.271Z,15.39
2022-09-26T08:16:03.325Z,15.95
2022-09-26T08:18:29.762Z,15.28
2022-09-26T08:20:56.239Z,15.47
2022-09-26T08:23:22.633Z,15.45
2022-09-26T08:25:50.321Z,15.60
2022-09-26T08:28:16.648Z,15.32
2022-09-26T08:30:43.010Z,15.02
2022-09-26T08:33:10.936Z,15.25
2022-09-26T08:35:37.278Z,15.67
2022-09-26T08:38:04.448Z,15.94
2022-09-26T08:40:38.415Z,15.53
2022-09-26T08:43:21.997Z,15.30
2022-09-26T08:45:57.356Z,15.21
2022-09-26T08:48:51.466Z,15.02
2022-09-26T08:51:29.377Z,15.95
2022-09-26T08:54:01.114Z,15.96
2022-09-26T08:56:32.131Z,16.03
2022-09-26T08:59:03.464Z,15.50
2022-09-26T09:01:33.795Z,15.27
2022-09-26T09:04:06.308Z,15.87
2022-09-26T09:06:34.328Z,16.25
2022-09-26T09:09:00.759Z,16.17
2022-09-26T09:11:50.336Z,15.48
2022-09-26T09:14:32.590Z,15.33
2022-09-26T09:17:09.618Z,15.28
2022-09-26T09:19:44.206Z,14.86
2022-09-26T09:22:30.529Z,15.46
2022-09-26T09:25:00.094Z,16.07
2022-09-26T09:28:00.356Z,15.62
2022-09-26T09:30:39.353Z,15.34
2022-09-26T09:33:11.961Z,15.89
2022-09-26T09:35:42.377Z,15.86
2022-09-26T09:38:15.248Z,15.94
2022-09-26T09:40:46.538Z,15.60
2022-09-26T09:43:17.088Z,15.80
2022-09-26T09:45:47.942Z,15.17
2022-09-26T09:48:15.496Z,15.48
2022-09-26T09:50:53.219Z,16.01
2022-09-26T09:53:31.766Z,15.92
2022-09-26T09:56:08.334Z,15.65
2022-09-26T09:58:49.370Z,15.22
2022-09-26T10:01:21.411Z,15.89
2022-09-26T10:03:55.160Z,15.93
2022-09-26T10:06:45.547Z,16.20
2022-09-26T10:09:38.583Z,15.94
2022-09-26T10:12:11.890Z,15.69
2022-09-26T10:14:42.568Z,15.68
2022-09-26T10:17:20.789Z,15.79
2022-09-26T10:19:48.089Z,15.97
2022-09-26T10:22:18.531Z,16.31
2022-09-26T10:24:48.025Z,15.80
2022-09-26T10:27:16.829Z,16.62
2022-09-26T10:29:44.556Z,16.11
2022-09-26T10:32:11.724Z,16.36
2022-09-26T10:34:39.719Z,16.14
2022-09-26T10:37:22.408Z,16.36
2022-09-26T10:39:52.880Z,15.82
2022-09-26T10:42:21.824Z,16.09
2022-09-26T10:44:49.561Z,15.04
2022-09-26T10:47:18.425Z,15.08
2022-09-26T10:49:49.719Z,15.61
2022-09-26T10:52:21.020Z,14.72
2022-09-26T10:54:55.302Z,14.98
2022-09-26T10:57:25.709Z,14.92
2022-09-26T10:59:52.362Z,15.17
2022-09-26T11:02:22.943Z,15.53
2022-09-26T11:04:56.498Z,15.03
2022-09-26T11:07:27.421Z,15.14
2022-09-26T11:09:59.629Z,15.03
2022-09-26T11:12:27.101Z,15.09
2022-09-26T11:14:55.402Z,15.38
2022-09-26T11:17:21.791Z,16.33
2022-09-26T11:19:56.935Z,16.63
2022-09-26T11:22:32.107Z,16.59
2022-09-26T11:25:07.272Z,15.88
2022-09-26T11:27:39.224Z,16.33
2022-09-26T11:30:11.848Z,15.77
2022-09-26T11:32:40.622Z,16.10
2022-09-26T11:35:14.531Z,16.01
2022-09-26T11:37:59.933Z,15.82
2022-09-26T11:40:37.909Z,15.09
2022-09-26T11:43:16.349Z,15.46
2022-09-26T11:45:58.052Z,15.52
2022-09-26T11:48:57.654Z,15.88
2022-09-26T11:51:42.842Z,15.04
2022-09-26T11:54:24.327Z,14.76
2022-09-26T11:57:01.915Z,14.77
2022-09-26T11:59:58.069Z,15.14
2022-09-26T12:02:40.818Z,15.35
2022-09-26T12:05:29.847Z,15.58
2022-09-26T12:08:12.576Z,14.99
2022-09-26T12:10:51.899Z,15.10
2022-09-26T12:13:29.983Z,15.17
2022-09-26T12:16:05.050Z,15.09
2022-09-26T12:18:40.296Z,14.53
2022-09-26T12:21:21.157Z,14.84
2022-09-26T12:23:52.700Z,14.33
2022-09-26T12:26:26.523Z,14.19
2022-09-26T12:29:13.236Z,14.67
2022-09-26T12:31:53.718Z,14.76
2022-09-26T12:34:35.841Z,14.50
2022-09-26T12:37:18.941Z,14.53
2022-09-26T12:39:58.366Z,14.73
2022-09-26T12:42:39.495Z,14.24
2022-09-26T12:45:35.007Z,14.81
2022-09-26T12:48:14.778Z,14.65
2022-09-26T12:50:48.566Z,14.87
2022-09-26T12:53:45.567Z,15.20
2022-09-26T12:56:19.912Z,14.96
2022-09-26T12:58:58.700Z,14.85
2022-09-26T13:01:40.860Z,14.50
2022-09-26T13:04:23.564Z,14.33
2022-09-26T13:07:20.485Z,13.81
2022-09-26T13:10:03.801Z,14.04
2022-09-26T13:12:47.613Z,14.25
2022-09-26T13:15:24.306Z,13.93
2022-09-26T13:17:56.304Z,14.00
2022-09-26T13:20:31.216Z,13.97
2022-09-26T13:23:03.556Z,14.02
2022-09-26T13:25:37.094Z,14.35
2022-09-26T13:28:10.237Z,14.33
2022-09-26T13:30:39.779Z,14.13
2022-09-26T13:33:12.431Z,13.88
2022-09-26T13:35:41.549Z,14.25
2022-09-26T13:38:24.861Z,14.18
2022-09-26T13:40:59.491Z,13.88
2022-09-26T13:43:45.940Z,13.82
2022-09-26T13:46:20.383Z,13.98
2022-09-26T13:48:53.600Z,14.57
2022-09-26T13:51:25.006Z,14.86
2022-09-26T13:54:00.539Z,14.41
2022-09-26T13:56:48.201Z,14.16
2022-09-26T13:59:48.679Z,14.38
2022-09-26T14:02:21.266Z,14.33
2022-09-26T14:04:48.652Z,14.32
2022-09-26T14:07:22.077Z,13.83
2022-09-26T14:09:55.839Z,14.61
2022-09-26T14:12:33.865Z,14.36
2022-09-26T14:15:19.851Z,13.97
2022-09-26T14:18:20.382Z,14.17
2022-09-26T14:20:57.539Z,14.02
2022-09-26T14:23:35.144Z,13.84
2022-09-26T14:26:13.237Z,14.01
2022-09-26T14:28:46.992Z,13.94
2022-09-26T14:31:21.338Z,13.66
2022-09-26T14:33:49.160Z,13.36
2022-09-26T14:36:27.502Z,13.51
2022-09-26T14:38:54.670Z,13.47
2022-09-26T14:41:24.881Z,13.41
2022-09-26T14:43:51.743Z,13.87
2022-09-26T14:46:23.692Z,13.80
2022-09-26T14:48:56.886Z,13.78
2022-09-26T14:51:27.007Z,13.34
2022-09-26T14:53:59.074Z,13.29
2022-09-26T14:56:43.955Z,13.46
2022-09-26T14:59:39.622Z,13.18
2022-09-26T15:02:24.925Z,13.40
2022-09-26T15:05:00.208Z,13.26
2022-09-26T15:07:27.155Z,13.30
2022-09-26T15:09:56.524Z,13.57
2022-09-26T15:12:29.764Z,13.59
2022-09-26T15:15:07.839Z,13.86
2022-09-26T15:17:40.549Z,13.72
2022-09-26T15:20:12.436Z,13.67
2022-09-26T15:22:38.786Z,13.57
2022-09-26T15:25:09.019Z,13.49
2022-09-26T15:27:35.518Z,13.73
2022-09-26T15:30:04.465Z,13.78
2022-09-26T15:32:33.432Z,13.49
2022-09-26T15:35:02.539Z,13.51
2022-09-26T15:37:30.990Z,13.48
2022-09-26T15:40:10.257Z,13.59
2022-09-26T15:42:36.648Z,13.30
2022-09-26T15:45:16.500Z,13.46
2022-09-26T15:47:43.157Z,13.31
2022-09-26T15:50:12.887Z,13.25
2022-09-26T15:52:42.599Z,13.50
2022-09-26T15:55:17.929Z,13.38
2022-09-26T15:57:46.512Z,13.65
2022-09-26T16:00:14.335Z,13.42
2022-09-26T16:02:41.490Z,13.60
2022-09-26T16:05:12.919Z,13.49
2022-09-26T16:07:47.220Z,13.75
2022-09-26T16:10:21.423Z,13.89
2022-09-26T16:12:47.990Z,13.36
2022-09-26T16:15:17.570Z,13.61
2022-09-26T16:17:51.036Z,13.08
2022-09-26T16:20:25.596Z,13.23
2022-09-26T16:22:54.671Z,13.40
2022-09-26T16:25:28.085Z,13.33
2022-09-26T16:28:18.527Z,13.42
2022-09-26T16:30:50.718Z,13.20
2022-09-26T16:33:28.081Z,13.55
2022-09-26T16:35:54.880Z,13.53
2022-09-26T16:38:26.637Z,13.77
2022-09-26T16:40:54.903Z,13.64
2022-09-26T16:43:26.105Z,13.76
2022-09-26T16:46:00.549Z,14.09
2022-09-26T16:48:36.005Z,13.42
2022-09-26T16:51:13.211Z,13.62
2022-09-26T16:53:43.221Z,13.34
2022-09-26T16:56:12.916Z,13.53
2022-09-26T16:58:45.479Z,13.14
2022-09-26T17:01:11.985Z,13.43
2022-09-26T17:03:38.536Z,13.13
2022-09-26T17:06:05.350Z,13.60
2022-09-26T17:08:31.743Z,13.01
2022-09-26T17:11:02.285Z,12.86
2022-09-26T17:13:31.700Z,13.03
2022-09-26T17:15:58.701Z,13.58
2022-09-26T17:18:27.523Z,13.19
2022-09-26T17:20:54.273Z,13.05
2022-09-26T17:23:39.257Z,13.02
2022-09-26T17:26:16.495Z,12.90
2022-09-26T17:28:43.006Z,13.08
2022-09-26T17:31:14.698Z,12.84
2022-09-26T17:33:42.284Z,13.00
2022-09-26T17:36:16.738Z,12.75
2022-09-26T17:38:43.244Z,12.94
2022-09-26T17:41:10.948Z,12.97
2022-09-26T17:43:37.307Z,13.11
2022-09-26T17:46:04.145Z,13.12
2022-09-26T17:48:30.742Z,13.37
2022-09-26T17:50:58.699Z,12.87
2022-09-26T17:53:25.365Z,13.29
2022-09-26T17:55:52.257Z,13.48
2022-09-26T17:58:20.007Z,13.44
2022-09-26T18:00:49.105Z,13.26
2022-09-26T18:03:21.098Z,13.27
2022-09-26T18:05:47.612Z,13.12
2022-09-26T18:08:18.819Z,13.11
2022-09-26T18:10:48.236Z,13.16
2022-09-26T18:13:16.082Z,12.94
2022-09-26T18:15:44.009Z,12.99
2022-09-26T18:18:14.624Z,13.17
2022-09-26T18:20:41.080Z,13.44
2022-09-26T18:23:12.799Z,13.00
2022-09-26T18:25:39.291Z,12.93
2022-09-26T18:28:11.082Z,13.23
2022-09-26T18:30:40.024Z,12.82
2022-09-26T18:33:07.820Z,12.94
2022-09-26T18:35:34.303Z,13.17
2022-09-26T18:38:00.731Z,12.71
2022-09-26T18:40:29.110Z,13.30
2022-09-26T18:42:57.614Z,13.05
2022-09-26T18:45:28.040Z,13.32
2022-09-26T18:47:55.547Z,12.88
2022-09-26T18:50:26.927Z,12.71
2022-09-26T18:52:53.392Z,13.07
2022-09-26T18:55:22.057Z,12.77
2022-09-26T18:57:48.387Z,12.53
2022-09-26T19:00:15.074Z,13.13
2022-09-26T19:02:42.419Z,12.68
2022-09-26T19:05:14.794Z,12.76
2022-09-26T19:07:43.049Z,12.52
2022-09-26T19:10:14.735Z,12.99
2022-09-26T19:12:41.085Z,12.67
2022-09-26T19:15:13.125Z,12.74
2022-09-26T19:17:39.528Z,12.63
2022-09-26T19:20:06.473Z,12.51
2022-09-26T19:22:33.219Z,12.09
2022-09-26T19:25:01.285Z,12.28
2022-09-26T19:27:31.911Z,11.86
2022-09-26T19:30:02.588Z,12.09
2022-09-26T19:32:31.765Z,12.57
2022-09-26T19:35:01.562Z,12.55
2022-09-26T19:37:28.026Z,12.14
2022-09-26T19:39:54.404Z,12.15
2022-09-26T19:42:22.078Z,12.53
2022-09-26T19:44:48.511Z,12.23
2022-09-26T19:47:17.311Z,12.28
2022-09-26T19:49:44.951Z,12.12
2022-09-26T19:52:15.549Z,12.30
2022-09-26T19:54:42.164Z,12.13
2022-09-26T19:57:14.247Z,11.96
2022-09-26T19:59:42.416Z,12.46
2022-09-26T20:02:13.423Z,12.29
2022-09-26T20:04:39.931Z,12.13
2022-09-26T20:07:10.731Z,12.46
2022-09-26T20:09:37.090Z,12.58
2022-09-26T20:12:03.667Z,12.21
2022-09-26T20:14:30.031Z,12.43
2022-09-26T20:17:00.446Z,12.45
2022-09-26T20:19:31.320Z,12.39
2022-09-26T20:21:59.964Z,12.47
2022-09-26T20:24:27.596Z,12.51
2022-09-26T20:26:54.561Z,12.35
2022-09-26T20:29:20.945Z,12.60
2022-09-26T20:31:47.426Z,12.30
2022-09-26T20:34:15.770Z,12.36
2022-09-26T20:36:48.034Z,12.57
2022-09-26T20:39:18.141Z,12.22
2022-09-26T20:41:44.484Z,12.02
2022-09-26T20:44:14.972Z,12.49
2022-09-26T20:46:48.160Z,12.44
2022-09-26T20:49:19.285Z,12.15
2022-09-26T20:51:46.515Z,12.31
2022-09-26T20:54:23.529Z,12.64
2022-09-26T20:56:49.872Z,12.66
2022-09-26T20:59:16.409Z,12.12
2022-09-26T21:01:43.023Z,12.32
2022-09-26T21:04:13.953Z,12.20
2022-09-26T21:06:41.939Z,12.68
2022-09-26T21:09:13.681Z,12.35
2022-09-26T21:11:40.062Z,12.07
2022-09-26T21:14:06.498Z,12.53
2022-09-26T21:16:32.984Z,12.41
2022-09-26T21:18:59.644Z,12.26
2022-09-26T21:21:29.507Z,12.45
2022-09-26T21:23:58.800Z,12.14
2022-09-26T21:26:27.575Z,12.41
2022-09-26T21:28:55.600Z,12.13
2022-09-26T21:31:25.542Z,12.19
2022-09-26T21:33:52.449Z,12.16
2022-09-26T21:36:19.508Z,12.68
2022-09-26T21:38:46.021Z,12.42
2022-09-26T21:41:13.750Z,12.42
2022-09-26T21:43:42.709Z,12.10
2022-09-26T21:46:09.489Z,12.07
2022-09-26T21:48:36.297Z,12.34
2022-09-26T21:51:03.770Z,12.17
2022-09-26T21:53:35.820Z,12.04
2022-09-26T21:56:07.361Z,12.07
2022-09-26T21:58:39.419Z,11.96
2022-09-26T22:01:05.874Z,12.06
2022-09-26T22:03:33.161Z,11.96
2022-09-26T22:06:02.545Z,11.85
2022-09-26T22:08:32.703Z,11.92
2022-09-26T22:10:59.056Z,11.91
2022-09-26T22:13:25.426Z,12.24
2022-09-26T22:15:53.114Z,12.27
2022-09-26T22:18:19.518Z,11.86
2022-09-26T22:20:45.940Z,12.21
2022-09-26T22:23:12.317Z,12.48
2022-09-26T22:25:42.671Z,12.16
2022-09-26T22:28:09.378Z,11.96
2022-09-26T22:30:39.054Z,11.96
2022-09-26T22:33:06.783Z,12.21
2022-09-26T22:35:33.352Z,12.07
2022-09-26T22:37:59.687Z,12.25
2022-09-26T22:40:26.196Z,11.78
2022-09-26T22:42:52.595Z,11.68
2022-09-26T22:45:18.943Z,11.95
2022-09-26T22:47:45.283Z,12.06
2022-09-26T22:50:13.090Z,11.84
2022-09-26T22:52:39.424Z,11.92
2022-09-26T22:55:06.347Z,11.92
2022-09-26T22:57:32.708Z,11.92
2022-09-26T22:59:59.099Z,11.76
2022-09-26T23:02:25.469Z,12.04
2022-09-26T23:04:51.860Z,12.03
2022-09-26T23:07:19.675Z,12.18
2022-09-26T23:09:46.599Z,12.21
2022-09-26T23:12:13.381Z,12.28
2022-09-26T23:14:39.848Z,11.90
2022-09-26T23:17:06.576Z,11.78
2022-09-26T23:19:33.064Z,12.32
2022-09-26T23:21:59.386Z,12.08
2022-09-26T23:24:28.011Z,12.13
2022-09-26T23:26:57.024Z,11.77
2022-09-26T23:29:23.391Z,12.08
2022-09-26T23:31:49.727Z,12.36
2022-09-26T23:34:16.405Z,12.15
2022-09-26T23:36:42.906Z,12.38
2022-09-26T23:39:09.476Z,12.44
2022-09-26T23:41:37.318Z,12.36
2022-09-26T23:44:03.662Z,12.30
2022-09-26T23:46:30.064Z,12.19
2022-09-26T23:48:56.531Z,12.25
2022-09-26T23:51:23.050Z,12.06
2022-09-26T23:53:49.460Z,12.09
2022-09-26T23:56:16.132Z,12.22
2022-09-26T23:58:43.923Z,12.24
